sensor_id;sensor_type;location;lat;lon;timestamp;P1;durP1;ratioP1;P2;durP2;ratioP2
46757;SDS011;32509;47.750;-3.396;2023-05-16T00:00:07;3.90;;;1.85;;
46757;SDS011;32509;47.750;-3.396;2023-05-16T00:02:34;5.28;;;1.92;;
46757;SDS011;32509;47.750;-3.396;2023-05-16T00:05:04;7.15;;;1.80;;
46757;SDS011;32509;47.750;-3.396;2023-05-16T00:07:31;5.93;;;1.77;;
46757;SDS011;32509;47.750;-3.396;2023-05-16T00:09:58;6.28;;;1.92;;
46757;SDS011;32509;47.750;-3.396;2023-05-16T00:12:24;4.07;;;1.60;;
46757;SDS011;32509;47.750;-3.396;2023-05-16T00:14:50;7.30;;;1.70;;
46757;SDS011;32509;47.750;-3.396;2023-05-16T00:17:17;7.93;;;1.95;;
46757;SDS011;32509;47.750;-3.396;2023-05-16T00:19:44;4.80;;;1.73;;
46757;SDS011;32509;47.750;-3.396;2023-05-16T00:22:22;5.30;;;2.03;;
46757;SDS011;32509;47.750;-3.396;2023-05-16T00:24:48;8.13;;;1.90;;
46757;SDS011;32509;47.750;-3.396;2023-05-16T00:27:14;5.53;;;1.80;;
46757;SDS011;32509;47.750;-3.396;2023-05-16T00:29:39;7.43;;;2.83;;
46757;SDS011;32509;47.750;-3.396;2023-05-16T00:32:05;6.13;;;1.98;;
46757;SDS011;32509;47.750;-3.396;2023-05-16T00:34:32;8.75;;;2.83;;
46757;SDS011;32509;47.750;-3.396;2023-05-16T00:36:59;8.60;;;2.45;;
46757;SDS011;32509;47.750;-3.396;2023-05-16T00:39:25;5.18;;;1.67;;
46757;SDS011;32509;47.750;-3.396;2023-05-16T00:41:50;11.43;;;2.03;;
46757;SDS011;32509;47.750;-3.396;2023-05-16T00:44:16;6.50;;;1.63;;
46757;SDS011;32509;47.750;-3.396;2023-05-16T00:46:42;6.88;;;1.90;;
46757;SDS011;32509;47.750;-3.396;2023-05-16T00:49:08;6.32;;;1.73;;
46757;SDS011;32509;47.750;-3.396;2023-05-16T00:51:34;7.80;;;1.75;;
46757;SDS011;32509;47.750;-3.396;2023-05-16T00:54:02;7.95;;;2.50;;
46757;SDS011;32509;47.750;-3.396;2023-05-16T00:56:29;8.10;;;1.98;;
46757;SDS011;32509;47.750;-3.396;2023-05-16T00:58:55;7.90;;;2.00;;
46757;SDS011;32509;47.750;-3.396;2023-05-16T01:01:22;5.65;;;2.15;;
46757;SDS011;32509;47.750;-3.396;2023-05-16T01:03:49;9.05;;;2.25;;
46757;SDS011;32509;47.750;-3.396;2023-05-16T01:06:15;6.53;;;1.75;;
46757;SDS011;32509;47.750;-3.396;2023-05-16T01:08:41;10.27;;;2.58;;
46757;SDS011;32509;47.750;-3.396;2023-05-16T01:14:21;6.43;;;1.50;;
46757;SDS011;32509;47.750;-3.396;2023-05-16T01:16:49;6.43;;;2.03;;
46757;SDS011;32509;47.750;-3.396;2023-05-16T01:27:56;7.72;;;2.67;;
46757;SDS011;32509;47.750;-3.396;2023-05-16T01:30:22;6.03;;;2.53;;
46757;SDS011;32509;47.750;-3.396;2023-05-16T01:32:49;7.38;;;2.45;;
46757;SDS011;32509;47.750;-3.396;2023-05-16T01:35:15;5.57;;;2.20;;
46757;SDS011;32509;47.750;-3.396;2023-05-16T01:37:44;7.50;;;3.15;;
46757;SDS011;32509;47.750;-3.396;2023-05-16T01:42:57;8.70;;;3.10;;
46757;SDS011;32509;47.750;-3.396;2023-05-16T01:45:31;6.18;;;1.90;;
46757;SDS011;32509;47.750;-3.396;2023-05-16T01:48:12;9.35;;;2.05;;
46757;SDS011;32509;47.750;-3.396;2023-05-16T01:50:44;8.90;;;2.20;;
46757;SDS011;32509;47.750;-3.396;2023-05-16T01:53:18;8.43;;;2.53;;
46757;SDS011;32509;47.750;-3.396;2023-05-16T01:55:48;7.07;;;2.30;;
46757;SDS011;32509;47.750;-3.396;2023-05-16T01:58:17;10.15;;;2.10;;
46757;SDS011;32509;47.750;-3.396;2023-05-16T02:00:45;10.70;;;2.88;;
46757;SDS011;32509;47.750;-3.396;2023-05-16T02:03:11;3.83;;;1.83;;
46757;SDS011;32509;47.750;-3.396;2023-05-16T02:05:37;7.82;;;1.80;;
46757;SDS011;32509;47.750;-3.396;2023-05-16T02:08:03;8.07;;;1.95;;
46757;SDS011;32509;47.750;-3.396;2023-05-16T02:10:29;6.85;;;2.33;;
46757;SDS011;32509;47.750;-3.396;2023-05-16T02:12:55;5.32;;;1.85;;
46757;SDS011;32509;47.750;-3.396;2023-05-16T02:15:21;3.92;;;1.40;;
46757;SDS011;32509;47.750;-3.396;2023-05-16T02:17:47;3.75;;;1.67;;
46757;SDS011;32509;47.750;-3.396;2023-05-16T02:20:13;7.88;;;2.97;;
46757;SDS011;32509;47.750;-3.396;2023-05-16T02:22:39;7.38;;;2.30;;
46757;SDS011;32509;47.750;-3.396;2023-05-16T02:25:06;6.20;;;2.22;;
46757;SDS011;32509;47.750;-3.396;2023-05-16T02:27:33;5.05;;;1.48;;
46757;SDS011;32509;47.750;-3.396;2023-05-16T02:29:58;12.27;;;2.88;;
46757;SDS011;32509;47.750;-3.396;2023-05-16T02:32:24;9.65;;;2.15;;
46757;SDS011;32509;47.750;-3.396;2023-05-16T02:34:50;7.72;;;2.25;;
46757;SDS011;32509;47.750;-3.396;2023-05-16T02:37:16;5.05;;;1.70;;
46757;SDS011;32509;47.750;-3.396;2023-05-16T02:39:42;8.00;;;2.47;;
46757;SDS011;32509;47.750;-3.396;2023-05-16T02:42:07;7.65;;;2.13;;
46757;SDS011;32509;47.750;-3.396;2023-05-16T02:44:33;4.03;;;1.95;;
46757;SDS011;32509;47.750;-3.396;2023-05-16T02:46:59;10.93;;;2.75;;
46757;SDS011;32509;47.750;-3.396;2023-05-16T02:49:25;9.32;;;2.45;;
46757;SDS011;32509;47.750;-3.396;2023-05-16T02:51:51;5.28;;;1.80;;
46757;SDS011;32509;47.750;-3.396;2023-05-16T02:54:16;7.93;;;3.15;;
46757;SDS011;32509;47.750;-3.396;2023-05-16T02:56:42;3.72;;;1.75;;
46757;SDS011;32509;47.750;-3.396;2023-05-16T02:59:09;6.60;;;2.83;;
46757;SDS011;32509;47.750;-3.396;2023-05-16T03:01:35;5.03;;;1.80;;
46757;SDS011;32509;47.750;-3.396;2023-05-16T03:04:01;5.55;;;1.80;;
46757;SDS011;32509;47.750;-3.396;2023-05-16T03:06:27;15.98;;;2.33;;
46757;SDS011;32509;47.750;-3.396;2023-05-16T03:08:54;6.75;;;2.58;;
46757;SDS011;32509;47.750;-3.396;2023-05-16T03:11:20;7.15;;;1.95;;
46757;SDS011;32509;47.750;-3.396;2023-05-16T03:13:47;6.40;;;2.00;;
46757;SDS011;32509;47.750;-3.396;2023-05-16T03:16:13;12.48;;;2.20;;
46757;SDS011;32509;47.750;-3.396;2023-05-16T03:18:39;6.25;;;1.85;;
46757;SDS011;32509;47.750;-3.396;2023-05-16T03:21:05;7.22;;;2.10;;
46757;SDS011;32509;47.750;-3.396;2023-05-16T03:23:31;8.60;;;2.47;;
46757;SDS011;32509;47.750;-3.396;2023-05-16T03:25:57;8.00;;;2.20;;
46757;SDS011;32509;47.750;-3.396;2023-05-16T03:28:23;15.25;;;2.88;;
46757;SDS011;32509;47.750;-3.396;2023-05-16T03:30:49;6.32;;;2.45;;
46757;SDS011;32509;47.750;-3.396;2023-05-16T03:33:15;10.07;;;3.15;;
46757;SDS011;32509;47.750;-3.396;2023-05-16T03:35:41;8.52;;;2.63;;
46757;SDS011;32509;47.750;-3.396;2023-05-16T03:38:07;8.43;;;2.20;;
46757;SDS011;32509;47.750;-3.396;2023-05-16T03:40:33;6.97;;;2.13;;
46757;SDS011;32509;47.750;-3.396;2023-05-16T03:42:59;4.70;;;1.58;;
46757;SDS011;32509;47.750;-3.396;2023-05-16T03:45:25;5.78;;;1.85;;
46757;SDS011;32509;47.750;-3.396;2023-05-16T03:47:51;8.32;;;2.28;;
46757;SDS011;32509;47.750;-3.396;2023-05-16T03:50:17;6.78;;;2.00;;
46757;SDS011;32509;47.750;-3.396;2023-05-16T03:52:43;4.90;;;1.98;;
46757;SDS011;32509;47.750;-3.396;2023-05-16T03:55:09;7.05;;;2.25;;
46757;SDS011;32509;47.750;-3.396;2023-05-16T03:57:38;7.63;;;1.65;;
46757;SDS011;32509;47.750;-3.396;2023-05-16T04:00:04;5.70;;;1.60;;
46757;SDS011;32509;47.750;-3.396;2023-05-16T04:02:35;8.30;;;1.83;;
46757;SDS011;32509;47.750;-3.396;2023-05-16T04:05:01;15.77;;;2.70;;
46757;SDS011;32509;47.750;-3.396;2023-05-16T04:07:27;7.45;;;1.88;;
46757;SDS011;32509;47.750;-3.396;2023-05-16T04:09:59;7.35;;;2.25;;
46757;SDS011;32509;47.750;-3.396;2023-05-16T04:12:25;7.05;;;2.03;;
46757;SDS011;32509;47.750;-3.396;2023-05-16T04:14:50;6.30;;;1.95;;
46757;SDS011;32509;47.750;-3.396;2023-05-16T04:17:16;10.00;;;2.22;;
46757;SDS011;32509;47.750;-3.396;2023-05-16T04:19:42;7.90;;;1.63;;
46757;SDS011;32509;47.750;-3.396;2023-05-16T04:22:08;6.78;;;2.90;;
46757;SDS011;32509;47.750;-3.396;2023-05-16T04:24:33;6.70;;;3.10;;
46757;SDS011;32509;47.750;-3.396;2023-05-16T04:26:59;9.60;;;1.98;;
46757;SDS011;32509;47.750;-3.396;2023-05-16T04:29:25;5.45;;;2.17;;
46757;SDS011;32509;47.750;-3.396;2023-05-16T04:31:54;3.17;;;1.58;;
46757;SDS011;32509;47.750;-3.396;2023-05-16T04:34:19;6.90;;;2.20;;
46757;SDS011;32509;47.750;-3.396;2023-05-16T04:36:51;8.77;;;2.20;;
46757;SDS011;32509;47.750;-3.396;2023-05-16T04:39:18;3.75;;;1.90;;
46757;SDS011;32509;47.750;-3.396;2023-05-16T04:41:43;7.93;;;2.05;;
46757;SDS011;32509;47.750;-3.396;2023-05-16T04:44:09;7.28;;;1.90;;
46757;SDS011;32509;47.750;-3.396;2023-05-16T04:46:35;7.53;;;2.20;;
46757;SDS011;32509;47.750;-3.396;2023-05-16T04:49:01;7.13;;;2.30;;
46757;SDS011;32509;47.750;-3.396;2023-05-16T04:51:27;4.63;;;1.98;;
46757;SDS011;32509;47.750;-3.396;2023-05-16T04:53:53;8.93;;;2.25;;
46757;SDS011;32509;47.750;-3.396;2023-05-16T04:56:19;5.28;;;2.10;;
46757;SDS011;32509;47.750;-3.396;2023-05-16T04:58:46;5.60;;;1.80;;
46757;SDS011;32509;47.750;-3.396;2023-05-16T05:01:12;7.07;;;2.78;;
46757;SDS011;32509;47.750;-3.396;2023-05-16T05:03:37;7.82;;;2.67;;
46757;SDS011;32509;47.750;-3.396;2023-05-16T05:06:03;5.40;;;2.55;;
46757;SDS011;32509;47.750;-3.396;2023-05-16T05:08:29;4.97;;;1.60;;
46757;SDS011;32509;47.750;-3.396;2023-05-16T05:10:55;4.80;;;2.15;;
46757;SDS011;32509;47.750;-3.396;2023-05-16T05:13:21;3.35;;;1.98;;
46757;SDS011;32509;47.750;-3.396;2023-05-16T05:15:48;10.00;;;2.85;;
46757;SDS011;32509;47.750;-3.396;2023-05-16T05:18:16;5.63;;;1.73;;
46757;SDS011;32509;47.750;-3.396;2023-05-16T05:20:42;7.25;;;2.38;;
46757;SDS011;32509;47.750;-3.396;2023-05-16T05:23:08;6.28;;;2.22;;
46757;SDS011;32509;47.750;-3.396;2023-05-16T05:25:37;6.10;;;2.45;;
46757;SDS011;32509;47.750;-3.396;2023-05-16T05:28:03;5.65;;;1.80;;
46757;SDS011;32509;47.750;-3.396;2023-05-16T05:30:30;6.35;;;2.00;;
46757;SDS011;32509;47.750;-3.396;2023-05-16T05:32:55;8.38;;;1.85;;
46757;SDS011;32509;47.750;-3.396;2023-05-16T05:35:21;5.10;;;1.83;;
46757;SDS011;32509;47.750;-3.396;2023-05-16T05:37:47;6.07;;;2.47;;
46757;SDS011;32509;47.750;-3.396;2023-05-16T05:40:13;6.75;;;2.33;;
46757;SDS011;32509;47.750;-3.396;2023-05-16T05:42:40;5.05;;;2.55;;
46757;SDS011;32509;47.750;-3.396;2023-05-16T05:45:05;8.70;;;2.88;;
46757;SDS011;32509;47.750;-3.396;2023-05-16T05:47:31;6.43;;;2.17;;
46757;SDS011;32509;47.750;-3.396;2023-05-16T05:49:58;7.18;;;2.00;;
46757;SDS011;32509;47.750;-3.396;2023-05-16T05:52:24;5.57;;;1.83;;
46757;SDS011;32509;47.750;-3.396;2023-05-16T05:54:52;5.13;;;2.13;;
46757;SDS011;32509;47.750;-3.396;2023-05-16T05:57:18;6.35;;;1.95;;
46757;SDS011;32509;47.750;-3.396;2023-05-16T05:59:45;5.78;;;2.17;;
46757;SDS011;32509;47.750;-3.396;2023-05-16T06:02:10;5.78;;;2.72;;
46757;SDS011;32509;47.750;-3.396;2023-05-16T06:04:37;7.60;;;1.58;;
46757;SDS011;32509;47.750;-3.396;2023-05-16T06:07:03;4.47;;;1.88;;
46757;SDS011;32509;47.750;-3.396;2023-05-16T06:09:28;8.57;;;1.92;;
46757;SDS011;32509;47.750;-3.396;2023-05-16T06:11:54;5.28;;;2.03;;
46757;SDS011;32509;47.750;-3.396;2023-05-16T06:14:20;9.93;;;1.67;;
46757;SDS011;32509;47.750;-3.396;2023-05-16T06:16:46;7.60;;;2.13;;
46757;SDS011;32509;47.750;-3.396;2023-05-16T06:19:12;5.43;;;1.55;;
46757;SDS011;32509;47.750;-3.396;2023-05-16T06:21:40;4.65;;;1.70;;
46757;SDS011;32509;47.750;-3.396;2023-05-16T06:24:06;6.60;;;2.10;;
46757;SDS011;32509;47.750;-3.396;2023-05-16T06:26:32;7.43;;;2.00;;
46757;SDS011;32509;47.750;-3.396;2023-05-16T06:28:58;5.90;;;2.25;;
46757;SDS011;32509;47.750;-3.396;2023-05-16T06:31:24;4.55;;;1.67;;
46757;SDS011;32509;47.750;-3.396;2023-05-16T06:33:50;5.03;;;1.92;;
46757;SDS011;32509;47.750;-3.396;2023-05-16T06:36:16;4.78;;;1.33;;
46757;SDS011;32509;47.750;-3.396;2023-05-16T06:38:42;6.18;;;1.85;;
46757;SDS011;32509;47.750;-3.396;2023-05-16T06:41:08;4.57;;;1.95;;
46757;SDS011;32509;47.750;-3.396;2023-05-16T06:43:33;5.30;;;1.60;;
46757;SDS011;32509;47.750;-3.396;2023-05-16T06:45:59;6.28;;;2.15;;
46757;SDS011;32509;47.750;-3.396;2023-05-16T06:48:25;3.05;;;1.50;;
46757;SDS011;32509;47.750;-3.396;2023-05-16T06:50:51;6.65;;;1.83;;
46757;SDS011;32509;47.750;-3.396;2023-05-16T06:53:17;5.50;;;2.45;;
46757;SDS011;32509;47.750;-3.396;2023-05-16T06:55:43;6.82;;;2.35;;
46757;SDS011;32509;47.750;-3.396;2023-05-16T06:58:09;12.48;;;2.28;;
46757;SDS011;32509;47.750;-3.396;2023-05-16T07:00:35;8.07;;;2.10;;
46757;SDS011;32509;47.750;-3.396;2023-05-16T07:03:01;6.75;;;2.38;;
46757;SDS011;32509;47.750;-3.396;2023-05-16T07:05:27;6.97;;;1.70;;
46757;SDS011;32509;47.750;-3.396;2023-05-16T07:07:53;10.35;;;2.33;;
46757;SDS011;32509;47.750;-3.396;2023-05-16T07:10:19;6.20;;;1.20;;
46757;SDS011;32509;47.750;-3.396;2023-05-16T07:12:46;5.18;;;1.80;;
46757;SDS011;32509;47.750;-3.396;2023-05-16T07:15:12;5.72;;;1.77;;
46757;SDS011;32509;47.750;-3.396;2023-05-16T07:17:38;11.57;;;2.65;;
46757;SDS011;32509;47.750;-3.396;2023-05-16T07:20:04;6.75;;;1.73;;
46757;SDS011;32509;47.750;-3.396;2023-05-16T07:22:32;5.57;;;1.70;;
46757;SDS011;32509;47.750;-3.396;2023-05-16T07:24:58;3.42;;;1.15;;
46757;SDS011;32509;47.750;-3.396;2023-05-16T07:27:25;6.03;;;2.00;;
46757;SDS011;32509;47.750;-3.396;2023-05-16T07:29:52;6.05;;;2.28;;
46757;SDS011;32509;47.750;-3.396;2023-05-16T07:32:18;7.07;;;1.90;;
46757;SDS011;32509;47.750;-3.396;2023-05-16T07:34:44;9.25;;;2.22;;
46757;SDS011;32509;47.750;-3.396;2023-05-16T07:37:10;6.95;;;2.83;;
46757;SDS011;32509;47.750;-3.396;2023-05-16T07:39:40;8.23;;;2.38;;
46757;SDS011;32509;47.750;-3.396;2023-05-16T07:42:06;6.07;;;1.80;;
46757;SDS011;32509;47.750;-3.396;2023-05-16T07:44:33;3.75;;;1.75;;
46757;SDS011;32509;47.750;-3.396;2023-05-16T07:46:59;5.40;;;2.25;;
46757;SDS011;32509;47.750;-3.396;2023-05-16T07:49:25;3.80;;;1.85;;
46757;SDS011;32509;47.750;-3.396;2023-05-16T07:51:51;11.82;;;3.25;;
46757;SDS011;32509;47.750;-3.396;2023-05-16T07:54:17;7.65;;;1.80;;
46757;SDS011;32509;47.750;-3.396;2023-05-16T07:56:42;10.10;;;2.03;;
46757;SDS011;32509;47.750;-3.396;2023-05-16T07:59:08;10.32;;;2.00;;
46757;SDS011;32509;47.750;-3.396;2023-05-16T08:01:34;3.22;;;2.35;;
46757;SDS011;32509;47.750;-3.396;2023-05-16T08:04:01;5.05;;;1.80;;
46757;SDS011;32509;47.750;-3.396;2023-05-16T08:06:26;9.80;;;2.50;;
46757;SDS011;32509;47.750;-3.396;2023-05-16T08:08:55;6.28;;;1.63;;
46757;SDS011;32509;47.750;-3.396;2023-05-16T08:11:20;10.65;;;2.03;;
46757;SDS011;32509;47.750;-3.396;2023-05-16T08:13:46;3.92;;;1.58;;
46757;SDS011;32509;47.750;-3.396;2023-05-16T08:16:13;5.95;;;2.10;;
46757;SDS011;32509;47.750;-3.396;2023-05-16T08:18:39;6.22;;;2.72;;
46757;SDS011;32509;47.750;-3.396;2023-05-16T08:21:04;7.90;;;1.80;;
46757;SDS011;32509;47.750;-3.396;2023-05-16T08:23:30;5.97;;;1.90;;
46757;SDS011;32509;47.750;-3.396;2023-05-16T08:25:56;10.07;;;3.30;;
46757;SDS011;32509;47.750;-3.396;2023-05-16T08:28:22;6.15;;;2.13;;
46757;SDS011;32509;47.750;-3.396;2023-05-16T08:30:48;6.70;;;1.83;;
46757;SDS011;32509;47.750;-3.396;2023-05-16T08:33:14;3.30;;;1.70;;
46757;SDS011;32509;47.750;-3.396;2023-05-16T08:35:43;6.40;;;1.52;;
46757;SDS011;32509;47.750;-3.396;2023-05-16T08:38:09;4.40;;;1.70;;
46757;SDS011;32509;47.750;-3.396;2023-05-16T08:40:35;7.45;;;1.70;;
46757;SDS011;32509;47.750;-3.396;2023-05-16T08:43:01;12.25;;;1.92;;
46757;SDS011;32509;47.750;-3.396;2023-05-16T08:45:27;4.60;;;1.30;;
46757;SDS011;32509;47.750;-3.396;2023-05-16T08:47:54;6.55;;;1.77;;
46757;SDS011;32509;47.750;-3.396;2023-05-16T08:50:23;3.47;;;1.55;;
46757;SDS011;32509;47.750;-3.396;2023-05-16T08:52:50;4.45;;;1.63;;
46757;SDS011;32509;47.750;-3.396;2023-05-16T08:55:20;3.58;;;1.33;;
46757;SDS011;32509;47.750;-3.396;2023-05-16T08:57:49;4.57;;;1.58;;
46757;SDS011;32509;47.750;-3.396;2023-05-16T09:00:16;4.05;;;0.93;;
46757;SDS011;32509;47.750;-3.396;2023-05-16T09:02:43;2.95;;;1.40;;
46757;SDS011;32509;47.750;-3.396;2023-05-16T09:05:10;4.60;;;1.05;;
46757;SDS011;32509;47.750;-3.396;2023-05-16T09:07:37;3.90;;;1.20;;
46757;SDS011;32509;47.750;-3.396;2023-05-16T09:10:05;2.90;;;1.15;;
46757;SDS011;32509;47.750;-3.396;2023-05-16T09:12:32;3.10;;;1.20;;
46757;SDS011;32509;47.750;-3.396;2023-05-16T09:14:59;6.25;;;1.92;;
46757;SDS011;32509;47.750;-3.396;2023-05-16T09:17:28;4.32;;;1.10;;
46757;SDS011;32509;47.750;-3.396;2023-05-16T09:20:00;4.97;;;1.92;;
46757;SDS011;32509;47.750;-3.396;2023-05-16T09:22:33;4.70;;;2.08;;
46757;SDS011;32509;47.750;-3.396;2023-05-16T09:24:59;3.28;;;1.10;;
46757;SDS011;32509;47.750;-3.396;2023-05-16T09:27:24;3.70;;;1.13;;
46757;SDS011;32509;47.750;-3.396;2023-05-16T09:29:51;4.68;;;1.02;;
46757;SDS011;32509;47.750;-3.396;2023-05-16T09:32:16;2.90;;;1.38;;
46757;SDS011;32509;47.750;-3.396;2023-05-16T09:34:46;8.85;;;2.33;;
46757;SDS011;32509;47.750;-3.396;2023-05-16T09:37:13;3.03;;;1.08;;
46757;SDS011;32509;47.750;-3.396;2023-05-16T09:39:49;4.10;;;0.90;;
46757;SDS011;32509;47.750;-3.396;2023-05-16T09:42:18;2.30;;;1.10;;
46757;SDS011;32509;47.750;-3.396;2023-05-16T09:44:51;3.30;;;2.20;;
46757;SDS011;32509;47.750;-3.396;2023-05-16T09:47:19;22.48;;;1.35;;
46757;SDS011;32509;47.750;-3.396;2023-05-16T09:49:45;5.65;;;1.05;;
46757;SDS011;32509;47.750;-3.396;2023-05-16T09:52:15;3.33;;;1.20;;
46757;SDS011;32509;47.750;-3.396;2023-05-16T09:54:41;3.45;;;0.90;;
46757;SDS011;32509;47.750;-3.396;2023-05-16T09:57:07;4.05;;;1.00;;
46757;SDS011;32509;47.750;-3.396;2023-05-16T09:59:36;2.55;;;0.90;;
46757;SDS011;32509;47.750;-3.396;2023-05-16T10:02:03;2.83;;;1.05;;
46757;SDS011;32509;47.750;-3.396;2023-05-16T10:04:31;7.15;;;1.20;;
46757;SDS011;32509;47.750;-3.396;2023-05-16T10:06:58;1.42;;;1.10;;
46757;SDS011;32509;47.750;-3.396;2023-05-16T10:09:31;2.60;;;0.87;;
46757;SDS011;32509;47.750;-3.396;2023-05-16T10:11:59;5.72;;;1.42;;
46757;SDS011;32509;47.750;-3.396;2023-05-16T10:14:28;4.43;;;1.17;;
46757;SDS011;32509;47.750;-3.396;2023-05-16T10:16:57;3.15;;;1.30;;
46757;SDS011;32509;47.750;-3.396;2023-05-16T10:19:23;4.05;;;0.73;;
46757;SDS011;32509;47.750;-3.396;2023-05-16T10:21:52;3.08;;;0.93;;
46757;SDS011;32509;47.750;-3.396;2023-05-16T10:26:55;4.80;;;1.17;;
46757;SDS011;32509;47.750;-3.396;2023-05-16T10:29:21;5.32;;;1.25;;
46757;SDS011;32509;47.750;-3.396;2023-05-16T10:31:48;2.10;;;1.08;;
46757;SDS011;32509;47.750;-3.396;2023-05-16T10:34:15;4.75;;;1.58;;
46757;SDS011;32509;47.750;-3.396;2023-05-16T10:36:42;5.43;;;1.20;;
46757;SDS011;32509;47.750;-3.396;2023-05-16T10:39:08;6.72;;;1.00;;
46757;SDS011;32509;47.750;-3.396;2023-05-16T10:41:36;2.53;;;1.10;;
46757;SDS011;32509;47.750;-3.396;2023-05-16T10:44:02;5.35;;;1.10;;
46757;SDS011;32509;47.750;-3.396;2023-05-16T10:46:28;3.63;;;1.13;;
46757;SDS011;32509;47.750;-3.396;2023-05-16T10:48:55;4.30;;;1.27;;
46757;SDS011;32509;47.750;-3.396;2023-05-16T10:53:50;3.65;;;0.95;;
46757;SDS011;32509;47.750;-3.396;2023-05-16T10:56:25;3.15;;;1.23;;
46757;SDS011;32509;47.750;-3.396;2023-05-16T10:58:52;7.25;;;1.38;;
46757;SDS011;32509;47.750;-3.396;2023-05-16T11:11:42;1.85;;;0.90;;
46757;SDS011;32509;47.750;-3.396;2023-05-16T11:14:23;2.03;;;1.48;;
46757;SDS011;32509;47.750;-3.396;2023-05-16T11:17:09;8.32;;;1.23;;
46757;SDS011;32509;47.750;-3.396;2023-05-16T11:19:41;2.20;;;1.13;;
46757;SDS011;32509;47.750;-3.396;2023-05-16T11:22:09;4.50;;;1.50;;
46757;SDS011;32509;47.750;-3.396;2023-05-16T11:24:37;1.42;;;1.10;;
46757;SDS011;32509;47.750;-3.396;2023-05-16T11:27:04;3.45;;;1.55;;
46757;SDS011;32509;47.750;-3.396;2023-05-16T11:29:31;5.13;;;1.00;;
46757;SDS011;32509;47.750;-3.396;2023-05-16T11:31:59;2.67;;;1.25;;
46757;SDS011;32509;47.750;-3.396;2023-05-16T11:34:25;4.45;;;1.10;;
46757;SDS011;32509;47.750;-3.396;2023-05-16T11:36:51;3.63;;;1.08;;
46757;SDS011;32509;47.750;-3.396;2023-05-16T11:39:17;2.10;;;0.88;;
46757;SDS011;32509;47.750;-3.396;2023-05-16T11:41:44;4.60;;;1.60;;
46757;SDS011;32509;47.750;-3.396;2023-05-16T11:44:11;5.93;;;1.17;;
46757;SDS011;32509;47.750;-3.396;2023-05-16T11:46:40;2.83;;;1.15;;
46757;SDS011;32509;47.750;-3.396;2023-05-16T11:49:06;1.95;;;0.90;;
46757;SDS011;32509;47.750;-3.396;2023-05-16T11:51:34;2.65;;;1.27;;
46757;SDS011;32509;47.750;-3.396;2023-05-16T11:54:02;4.53;;;1.00;;
46757;SDS011;32509;47.750;-3.396;2023-05-16T11:56:32;5.65;;;1.60;;
46757;SDS011;32509;47.750;-3.396;2023-05-16T11:59:00;3.97;;;1.05;;
46757;SDS011;32509;47.750;-3.396;2023-05-16T12:01:33;4.65;;;1.70;;
46757;SDS011;32509;47.750;-3.396;2023-05-16T12:03:59;6.43;;;1.25;;
46757;SDS011;32509;47.750;-3.396;2023-05-16T12:06:25;3.47;;;1.15;;
46757;SDS011;32509;47.750;-3.396;2023-05-16T12:08:53;2.58;;;0.68;;
46757;SDS011;32509;47.750;-3.396;2023-05-16T12:11:19;5.18;;;0.90;;
46757;SDS011;32509;47.750;-3.396;2023-05-16T12:13:47;2.90;;;0.88;;
46757;SDS011;32509;47.750;-3.396;2023-05-16T12:16:13;4.00;;;1.20;;
46757;SDS011;32509;47.750;-3.396;2023-05-16T12:18:40;6.20;;;1.30;;
46757;SDS011;32509;47.750;-3.396;2023-05-16T12:21:06;3.47;;;0.95;;
46757;SDS011;32509;47.750;-3.396;2023-05-16T12:23:32;4.00;;;0.90;;
46757;SDS011;32509;47.750;-3.396;2023-05-16T12:25:58;4.00;;;1.20;;
46757;SDS011;32509;47.750;-3.396;2023-05-16T12:28:31;2.37;;;0.87;;
46757;SDS011;32509;47.750;-3.396;2023-05-16T12:31:02;4.65;;;0.80;;
46757;SDS011;32509;47.750;-3.396;2023-05-16T12:33:28;5.15;;;0.80;;
46757;SDS011;32509;47.750;-3.396;2023-05-16T12:35:53;1.40;;;1.05;;
46757;SDS011;32509;47.750;-3.396;2023-05-16T12:38:20;3.38;;;1.00;;
46757;SDS011;32509;47.750;-3.396;2023-05-16T12:40:46;2.97;;;1.02;;
46757;SDS011;32509;47.750;-3.396;2023-05-16T12:43:19;2.55;;;0.80;;
46757;SDS011;32509;47.750;-3.396;2023-05-16T12:45:50;3.50;;;1.00;;
46757;SDS011;32509;47.750;-3.396;2023-05-16T12:48:20;2.35;;;0.70;;
46757;SDS011;32509;47.750;-3.396;2023-05-16T12:50:47;4.07;;;0.98;;
46757;SDS011;32509;47.750;-3.396;2023-05-16T12:53:14;1.88;;;0.70;;
46757;SDS011;32509;47.750;-3.396;2023-05-16T12:55:41;2.08;;;0.85;;
46757;SDS011;32509;47.750;-3.396;2023-05-16T12:58:08;4.88;;;1.20;;
46757;SDS011;32509;47.750;-3.396;2023-05-16T13:00:34;3.83;;;0.90;;
46757;SDS011;32509;47.750;-3.396;2023-05-16T13:03:06;2.80;;;1.90;;
46757;SDS011;32509;47.750;-3.396;2023-05-16T13:05:32;2.13;;;1.08;;
46757;SDS011;32509;47.750;-3.396;2023-05-16T13:07:59;5.43;;;0.95;;
46757;SDS011;32509;47.750;-3.396;2023-05-16T13:10:25;1.48;;;1.08;;
46757;SDS011;32509;47.750;-3.396;2023-05-16T13:12:51;2.17;;;1.00;;
46757;SDS011;32509;47.750;-3.396;2023-05-16T13:15:17;2.33;;;1.10;;
46757;SDS011;32509;47.750;-3.396;2023-05-16T13:17:43;4.38;;;1.35;;
46757;SDS011;32509;47.750;-3.396;2023-05-16T13:20:09;3.53;;;0.80;;
46757;SDS011;32509;47.750;-3.396;2023-05-16T13:22:39;3.28;;;1.02;;
46757;SDS011;32509;47.750;-3.396;2023-05-16T13:25:05;2.53;;;1.00;;
46757;SDS011;32509;47.750;-3.396;2023-05-16T13:27:32;2.05;;;1.00;;
46757;SDS011;32509;47.750;-3.396;2023-05-16T13:29:58;6.70;;;1.15;;
46757;SDS011;32509;47.750;-3.396;2023-05-16T13:32:24;3.13;;;1.05;;
46757;SDS011;32509;47.750;-3.396;2023-05-16T13:34:50;13.35;;;1.50;;
46757;SDS011;32509;47.750;-3.396;2023-05-16T13:37:17;4.97;;;1.30;;
46757;SDS011;32509;47.750;-3.396;2023-05-16T13:39:43;1.92;;;0.93;;
46757;SDS011;32509;47.750;-3.396;2023-05-16T13:42:09;1.52;;;1.30;;
46757;SDS011;32509;47.750;-3.396;2023-05-16T13:44:35;4.55;;;1.33;;
46757;SDS011;32509;47.750;-3.396;2023-05-16T13:47:01;9.00;;;1.15;;
46757;SDS011;32509;47.750;-3.396;2023-05-16T13:49:27;3.83;;;1.55;;
46757;SDS011;32509;47.750;-3.396;2023-05-16T13:51:53;3.88;;;1.15;;
46757;SDS011;32509;47.750;-3.396;2023-05-16T13:54:19;2.00;;;1.27;;
46757;SDS011;32509;47.750;-3.396;2023-05-16T13:56:46;2.08;;;1.02;;
46757;SDS011;32509;47.750;-3.396;2023-05-16T13:59:12;1.92;;;0.90;;
46757;SDS011;32509;47.750;-3.396;2023-05-16T14:01:38;3.92;;;0.90;;
46757;SDS011;32509;47.750;-3.396;2023-05-16T14:04:05;3.85;;;0.90;;
46757;SDS011;32509;47.750;-3.396;2023-05-16T14:06:31;2.38;;;0.73;;
46757;SDS011;32509;47.750;-3.396;2023-05-16T14:08:57;1.70;;;1.10;;
46757;SDS011;32509;47.750;-3.396;2023-05-16T14:11:23;3.13;;;1.30;;
46757;SDS011;32509;47.750;-3.396;2023-05-16T14:13:54;2.40;;;1.20;;
46757;SDS011;32509;47.750;-3.396;2023-05-16T14:16:19;5.40;;;1.20;;
46757;SDS011;32509;47.750;-3.396;2023-05-16T14:18:46;4.50;;;1.00;;
46757;SDS011;32509;47.750;-3.396;2023-05-16T14:21:12;3.85;;;1.10;;
46757;SDS011;32509;47.750;-3.396;2023-05-16T14:23:38;2.25;;;0.80;;
46757;SDS011;32509;47.750;-3.396;2023-05-16T14:26:04;1.75;;;0.90;;
46757;SDS011;32509;47.750;-3.396;2023-05-16T14:28:30;2.72;;;1.02;;
46757;SDS011;32509;47.750;-3.396;2023-05-16T14:30:59;4.03;;;0.88;;
46757;SDS011;32509;47.750;-3.396;2023-05-16T14:33:26;1.63;;;1.40;;
46757;SDS011;32509;47.750;-3.396;2023-05-16T14:35:51;3.03;;;1.10;;
46757;SDS011;32509;47.750;-3.396;2023-05-16T14:38:18;2.50;;;0.95;;
46757;SDS011;32509;47.750;-3.396;2023-05-16T14:40:44;2.83;;;1.10;;
46757;SDS011;32509;47.750;-3.396;2023-05-16T14:43:09;1.75;;;0.70;;
46757;SDS011;32509;47.750;-3.396;2023-05-16T14:45:36;3.53;;;1.10;;
46757;SDS011;32509;47.750;-3.396;2023-05-16T14:48:03;4.68;;;1.02;;
46757;SDS011;32509;47.750;-3.396;2023-05-16T14:50:32;4.72;;;1.15;;
46757;SDS011;32509;47.750;-3.396;2023-05-16T14:52:58;2.00;;;1.10;;
46757;SDS011;32509;47.750;-3.396;2023-05-16T14:55:24;6.05;;;2.40;;
46757;SDS011;32509;47.750;-3.396;2023-05-16T14:57:50;5.97;;;1.58;;
46757;SDS011;32509;47.750;-3.396;2023-05-16T15:00:16;3.28;;;1.25;;